Time;durP1;ratioP1;P1;durP2;ratioP2;P2;SDS_P1;SDS_P2;PMS_P1;PMS_P2;Temp;Humidity;BMP_temperature;BMP_pressure;BME280_temperature;BME280_humidity;BME280_pressure;Samples;Min_cycle;Max_cycle;Signal;HPM_P1;HPM_P2
2022/04/20 00:01:10;;;;;;;4.43;1.85;;;14.80;76.40;;;;;;5066935;28;20025;-79
2022/04/20 00:03:35;;;;;;;4.13;1.75;;;14.90;76.40;;;;;;5067363;28;20730;-79
2022/04/20 00:06:01;;;;;;;4.63;1.98;;;14.90;76.40;;;;;;5066693;28;20025;-79
2022/04/20 00:08:26;;;;;;;4.60;1.65;;;14.90;76.30;;;;;;5060874;28;20855;-80
2022/04/20 00:10:52;;;;;;;3.85;1.55;;;14.90;76.20;;;;;;5057392;28;20026;-79
2022/04/20 00:13:18;;;;;;;4.20;1.80;;;14.80;76.30;;;;;;5067413;28;20083;-80
2022/04/20 00:15:43;;;;;;;3.47;1.60;;;14.80;76.30;;;;;;5061421;28;20029;-80
2022/04/20 00:18:08;;;;;;;4.22;1.73;;;14.70;76.40;;;;;;5065551;28;20202;-80
2022/04/20 00:20:34;;;;;;;4.30;1.92;;;14.80;76.60;;;;;;5066299;28;20036;-79
2022/04/20 00:22:59;;;;;;;3.25;1.60;;;14.80;76.80;;;;;;5067084;28;20020;-80
2022/04/20 00:25:25;;;;;;;5.00;1.80;;;14.70;76.80;;;;;;5066532;28;20025;-79
2022/04/20 00:27:50;;;;;;;4.53;1.80;;;14.70;76.90;;;;;;5066818;28;20414;-79
2022/04/20 00:30:16;;;;;;;4.05;1.85;;;14.70;77.00;;;;;;5059468;28;21012;-79
2022/04/20 00:32:42;;;;;;;5.32;1.77;;;14.70;77.10;;;;;;5064840;28;20074;-79
2022/04/20 00:35:10;;;;;;;3.92;1.58;;;14.70;77.20;;;;;;5051290;28;20021;-80
2022/04/20 00:37:36;;;;;;;4.13;1.60;;;14.70;77.30;;;;;;5066870;28;20074;-79
2022/04/20 00:40:03;;;;;;;2.95;1.67;;;14.70;77.30;;;;;;5066008;28;20028;-80
2022/04/20 00:42:30;;;;;;;5.80;2.20;;;14.70;77.30;;;;;;5068768;28;20021;-81
2022/04/20 00:44:55;;;;;;;4.20;1.73;;;14.70;77.90;;;;;;5067358;28;20123;-79
2022/04/20 00:47:21;;;;;;;3.28;1.42;;;14.60;77.40;;;;;;5066513;28;20848;-80
2022/04/20 00:49:47;;;;;;;5.13;1.60;;;14.70;77.50;;;;;;5066497;28;20056;-80
2022/04/20 00:52:13;;;;;;;3.97;1.67;;;14.60;77.40;;;;;;5066150;28;20052;-79
2022/04/20 00:54:39;;;;;;;4.03;1.63;;;14.60;77.40;;;;;;5063848;28;20025;-81
2022/04/20 00:57:05;;;;;;;3.97;1.60;;;14.60;77.60;;;;;;5054461;28;20020;-79
2022/04/20 00:59:34;;;;;;;3.85;1.77;;;14.60;77.50;;;;;;5068755;28;20391;-79
2022/04/20 01:02:00;;;;;;;5.18;2.20;;;14.60;77.50;;;;;;5065229;28;20085;-80
2022/04/20 01:04:26;;;;;;;4.63;1.80;;;14.60;77.50;;;;;;5066226;28;20024;-80
2022/04/20 01:06:52;;;;;;;4.38;1.60;;;14.60;77.60;;;;;;5065287;28;20021;-79
2022/04/20 01:09:18;;;;;;;4.22;1.67;;;14.60;77.50;;;;;;5064167;28;20051;-79
2022/04/20 01:11:44;;;;;;;5.28;2.03;;;14.60;77.60;;;;;;5056970;28;20574;-80
2022/04/20 01:14:09;;;;;;;2.72;1.50;;;14.60;77.60;;;;;;5067658;28;20490;-80
2022/04/20 01:16:35;;;;;;;4.10;1.50;;;14.60;77.60;;;;;;5065950;28;20048;-79
2022/04/20 01:19:02;;;;;;;4.07;1.60;;;14.60;77.60;;;;;;5055384;28;20028;-80
2022/04/20 01:21:28;;;;;;;4.75;1.90;;;14.60;77.60;;;;;;5062419;28;20473;-80
2022/04/20 01:23:54;;;;;;;5.18;1.85;;;14.60;77.60;;;;;;5067348;28;20031;-80
2022/04/20 01:26:20;;;;;;;5.35;1.90;;;14.60;77.60;;;;;;5065169;28;20040;-79
2022/04/20 01:28:47;;;;;;;3.83;1.83;;;14.60;77.60;;;;;;5066252;28;20562;-79
2022/04/20 01:31:17;;;;;;;4.35;1.80;;;14.60;77.60;;;;;;5051979;28;20035;-78
2022/04/20 01:33:44;;;;;;;4.45;2.17;;;14.60;77.60;;;;;;5067645;28;20039;-81
2022/04/20 01:36:10;;;;;;;5.03;1.83;;;14.60;77.60;;;;;;5057480;28;20484;-80
2022/04/20 01:38:39;;;;;;;4.80;1.90;;;14.60;77.60;;;;;;5061005;28;20320;-79
2022/04/20 01:41:05;;;;;;;2.45;1.50;;;14.60;77.60;;;;;;5064243;28;20111;-79
2022/04/20 01:43:31;;;;;;;4.22;1.73;;;14.50;77.50;;;;;;5051485;28;20123;-79
2022/04/20 01:45:57;;;;;;;4.80;1.60;;;14.60;77.60;;;;;;5053760;28;20791;-79
2022/04/20 01:48:23;;;;;;;4.45;1.80;;;14.60;77.60;;;;;;5059413;28;20036;-79
2022/04/20 01:53:32;;;;;;;3.28;1.73;;;14.60;77.60;;;;;;5064183;28;20624;-79
2022/04/20 01:56:00;;;;;;;4.05;1.98;;;14.60;77.60;;;;;;5066516;28;20032;-80
2022/04/20 01:58:28;;;;;;;4.45;1.70;;;14.60;77.60;;;;;;5066252;28;20025;-78
2022/04/20 02:00:54;;;;;;;3.40;1.70;;;14.60;77.50;;;;;;5065796;28;20110;-80
2022/04/20 02:03:19;;;;;;;4.22;1.70;;;14.60;77.40;;;;;;5058192;28;20059;-79
2022/04/20 02:05:45;;;;;;;3.10;1.45;;;14.60;77.30;;;;;;5063580;28;20105;-80
2022/04/20 02:08:11;;;;;;;4.15;1.58;;;14.70;77.30;;;;;;5070322;28;20027;-79
2022/04/20 02:10:36;;;;;;;3.15;1.50;;;14.70;77.30;;;;;;5067066;28;20025;-79
2022/04/20 02:13:02;;;;;;;3.67;1.50;;;14.70;77.10;;;;;;5052888;28;20051;-79
2022/04/20 02:15:28;;;;;;;4.45;1.67;;;14.80;77.10;;;;;;5067693;28;20020;-80
2022/04/20 02:17:53;;;;;;;3.47;1.60;;;14.90;77.00;;;;;;5067626;28;20123;-80
2022/04/20 02:20:19;;;;;;;4.50;1.50;;;14.70;76.80;;;;;;5070499;28;20021;-80
2022/04/20 02:22:45;;;;;;;4.25;1.60;;;14.80;76.80;;;;;;5068446;28;20465;-80
2022/04/20 02:25:10;;;;;;;4.72;1.50;;;14.80;76.70;;;;;;5066745;28;20027;-79
2022/04/20 02:27:36;;;;;;;3.75;1.40;;;14.80;76.70;;;;;;5068808;28;20059;-79
2022/04/20 02:30:03;;;;;;;4.22;1.77;;;14.80;76.60;;;;;;5067621;28;20048;-80
2022/04/20 02:32:28;;;;;;;3.38;1.50;;;14.80;76.60;;;;;;5069052;28;20036;-78
2022/04/20 02:34:53;;;;;;;3.40;1.52;;;14.80;76.60;;;;;;5068842;28;20025;-79
2022/04/20 02:37:19;;;;;;;3.30;1.75;;;14.80;76.50;;;;;;5062737;28;20028;-79
2022/04/20 02:39:45;;;;;;;3.22;1.73;;;14.80;76.50;;;;;;5067517;28;20020;-79
2022/04/20 02:42:11;;;;;;;2.67;1.40;;;14.70;76.40;;;;;;5069818;28;20715;-79
2022/04/20 02:44:39;;;;;;;3.08;1.70;;;14.70;76.60;;;;;;5068426;28;20475;-79
2022/04/20 02:47:05;;;;;;;3.92;1.50;;;14.70;76.70;;;;;;5066316;28;20029;-79
2022/04/20 02:49:30;;;;;;;4.00;1.60;;;14.70;76.90;;;;;;5060187;28;20067;-78
2022/04/20 02:51:56;;;;;;;4.10;1.70;;;14.70;77.00;;;;;;5068268;28;20419;-80
2022/04/20 02:54:21;;;;;;;4.03;1.60;;;14.60;77.10;;;;;;5061634;28;20021;-79
2022/04/20 02:56:47;;;;;;;3.83;1.60;;;14.60;77.20;;;;;;5068632;28;20986;-79
2022/04/20 02:59:13;;;;;;;4.57;1.63;;;14.60;77.30;;;;;;5069523;28;20103;-78
2022/04/20 03:01:38;;;;;;;3.03;1.40;;;14.60;77.30;;;;;;5069787;28;20095;-80
2022/04/20 03:04:05;;;;;;;2.90;1.45;;;14.60;77.30;;;;;;5068315;28;20112;-79
2022/04/20 03:06:30;;;;;;;3.80;1.63;;;14.60;77.50;;;;;;5067915;28;20744;-80
2022/04/20 03:08:56;;;;;;;2.45;1.40;;;14.60;77.50;;;;;;5068876;28;20459;-79
2022/04/20 03:11:22;;;;;;;4.18;1.80;;;14.60;77.50;;;;;;5068808;28;20176;-81
2022/04/20 03:13:47;;;;;;;2.75;1.52;;;14.50;77.50;;;;;;5068080;28;20032;-80
2022/04/20 03:16:14;;;;;;;3.55;1.52;;;14.50;77.50;;;;;;5069782;28;20029;-79
2022/04/20 03:18:39;;;;;;;2.83;1.55;;;14.60;77.60;;;;;;5068414;28;20070;-80
2022/04/20 03:21:05;;;;;;;3.83;1.60;;;14.50;77.60;;;;;;5068428;28;20567;-80
2022/04/20 03:23:30;;;;;;;2.80;1.45;;;14.60;77.60;;;;;;5069046;28;20039;-80
2022/04/20 03:25:56;;;;;;;3.10;1.40;;;14.60;78.20;;;;;;5068786;28;20020;-80
2022/04/20 03:28:22;;;;;;;3.10;1.50;;;14.50;77.60;;;;;;5069263;28;20403;-79
2022/04/20 03:30:47;;;;;;;2.55;1.25;;;14.50;77.60;;;;;;5067864;28;20491;-80
2022/04/20 03:33:14;;;;;;;2.58;1.50;;;14.50;77.70;;;;;;5067748;28;20032;-80
2022/04/20 03:35:39;;;;;;;4.15;1.80;;;14.50;77.70;;;;;;5069162;28;20031;-79
2022/04/20 03:38:06;;;;;;;3.25;1.88;;;14.50;78.20;;;;;;5067718;28;20025;-80
2022/04/20 03:40:32;;;;;;;3.95;1.70;;;14.50;77.70;;;;;;5068108;28;20470;-80
2022/04/20 03:42:57;;;;;;;4.60;1.85;;;14.50;77.70;;;;;;5068984;28;20028;-79
2022/04/20 03:45:23;;;;;;;3.25;1.58;;;14.50;77.70;;;;;;5068687;28;20567;-81
2022/04/20 03:47:48;;;;;;;3.85;1.52;;;14.50;77.70;;;;;;5082917;28;20506;-80
2022/04/20 03:50:14;;;;;;;3.58;1.75;;;14.50;77.80;;;;;;5075901;28;20077;-79
2022/04/20 03:52:40;;;;;;;3.25;1.67;;;14.50;77.80;;;;;;5067841;28;20633;-79
2022/04/20 03:55:06;;;;;;;4.15;1.80;;;14.50;77.80;;;;;;5068366;28;20073;-80
2022/04/20 03:57:31;;;;;;;3.67;1.80;;;14.50;77.80;;;;;;5069781;28;20107;-80
2022/04/20 03:59:57;;;;;;;3.70;1.65;;;14.50;77.80;;;;;;5067603;28;20045;-79
2022/04/20 04:02:22;;;;;;;2.45;1.40;;;14.50;77.80;;;;;;5068047;28;20383;-80
2022/04/20 04:04:48;;;;;;;3.50;1.50;;;14.50;77.80;;;;;;5066300;28;20479;-80
2022/04/20 04:07:13;;;;;;;2.97;1.52;;;14.50;77.80;;;;;;5049182;28;20025;-80
2022/04/20 04:09:39;;;;;;;2.60;1.50;;;14.50;77.90;;;;;;5048983;28;20044;-80
2022/04/20 04:12:06;;;;;;;2.60;1.60;;;14.50;77.80;;;;;;5064039;28;20028;-81
2022/04/20 04:14:40;;;;;;;3.33;1.83;;;14.50;77.80;;;;;;5064207;28;20035;-80
2022/04/20 04:17:06;;;;;;;3.38;1.60;;;14.50;77.80;;;;;;5066600;28;20068;-79
2022/04/20 04:19:32;;;;;;;3.08;1.58;;;14.50;77.80;;;;;;5068260;28;20082;-80
2022/04/20 04:21:57;;;;;;;3.97;2.00;;;14.50;77.80;;;;;;5065059;28;20075;-80
2022/04/20 04:24:35;;;;;;;3.50;1.63;;;14.50;77.80;;;;;;5067899;28;20059;-80
2022/04/20 04:27:03;;;;;;;2.88;1.50;;;14.50;77.70;;;;;;5064905;28;20025;-79
2022/04/20 04:29:28;;;;;;;3.30;1.67;;;14.50;77.70;;;;;;5067803;28;20415;-79
2022/04/20 04:31:54;;;;;;;3.30;1.75;;;14.50;77.70;;;;;;5067559;28;20039;-79
2022/04/20 04:34:20;;;;;;;2.78;1.60;;;14.50;77.70;;;;;;5068979;28;20035;-79
2022/04/20 04:36:46;;;;;;;2.85;1.55;;;14.50;77.70;;;;;;5067384;28;20024;-80
2022/04/20 04:39:13;;;;;;;3.15;1.58;;;14.50;77.60;;;;;;5071243;28;20613;-79
2022/04/20 04:41:39;;;;;;;3.85;1.58;;;14.50;77.50;;;;;;5065920;28;20111;-78
2022/04/20 04:44:04;;;;;;;2.80;1.55;;;14.60;77.50;;;;;;5053057;28;20543;-81
2022/04/20 04:49:14;;;;;;;2.80;1.48;;;14.60;77.40;;;;;;5060432;28;20028;-80
2022/04/20 04:51:39;;;;;;;2.33;1.27;;;14.60;77.20;;;;;;5067619;28;20028;-81
2022/04/20 04:54:05;;;;;;;3.95;1.70;;;14.70;77.10;;;;;;5066314;28;20407;-77
2022/04/20 04:56:31;;;;;;;2.67;1.40;;;14.70;77.00;;;;;;5068982;28;20023;-77
2022/04/20 04:58:56;;;;;;;2.45;1.42;;;14.70;77.00;;;;;;5065281;28;20035;-77
2022/04/20 05:01:22;;;;;;;2.53;1.30;;;14.70;76.90;;;;;;5072074;28;20074;-78
2022/04/20 05:03:48;;;;;;;3.10;1.38;;;14.70;76.80;;;;;;5066785;28;20024;-78
2022/04/20 05:06:13;;;;;;;2.92;1.40;;;14.70;76.80;;;;;;5069889;28;20090;-77
2022/04/20 05:08:38;;;;;;;3.10;1.40;;;14.70;76.70;;;;;;5068037;28;20076;-78
2022/04/20 05:11:04;;;;;;;4.10;1.65;;;14.70;76.70;;;;;;5067088;28;20033;-77
2022/04/20 05:13:29;;;;;;;2.75;1.42;;;14.80;77.30;;;;;;5067754;28;20056;-76
2022/04/20 05:15:55;;;;;;;2.65;1.45;;;14.70;76.70;;;;;;5068392;28;20032;-77
2022/04/20 05:18:20;;;;;;;3.22;1.40;;;14.70;76.60;;;;;;5067108;28;20325;-75
2022/04/20 05:20:46;;;;;;;3.20;1.77;;;14.70;76.50;;;;;;5066377;28;20116;-77
2022/04/20 05:23:11;;;;;;;2.58;1.50;;;14.70;76.60;;;;;;5066424;28;20059;-76
2022/04/20 05:25:37;;;;;;;3.15;1.58;;;14.70;76.80;;;;;;5066676;28;20086;-77
2022/04/20 05:28:02;;;;;;;3.03;1.42;;;14.60;76.90;;;;;;5073364;28;20042;-76
2022/04/20 05:30:29;;;;;;;2.65;1.40;;;14.60;77.00;;;;;;5066620;28;20038;-78
2022/04/20 05:32:54;;;;;;;2.40;1.30;;;14.60;77.10;;;;;;5067734;28;20475;-77
2022/04/20 05:35:20;;;;;;;3.80;1.58;;;14.60;77.20;;;;;;5067897;28;20039;-79
2022/04/20 05:43:13;;;;;;;3.53;1.52;;;14.50;77.00;;;;;;5071892;28;20039;-76
2022/04/20 05:45:39;;;;;;;4.07;1.52;;;14.60;77.20;;;;;;5071676;28;20028;-77
2022/04/20 05:48:04;;;;;;;4.05;1.80;;;14.50;77.00;;;;;;5086666;28;20089;-77
2022/04/20 05:50:30;;;;;;;3.47;1.55;;;14.60;77.10;;;;;;5090435;28;20409;-78
2022/04/20 05:52:55;;;;;;;3.35;1.65;;;14.70;77.10;;;;;;5091338;28;20092;-78
2022/04/20 05:55:21;;;;;;;3.78;1.60;;;14.50;77.00;;;;;;5090495;28;20089;-77
2022/04/20 05:57:49;;;;;;;3.58;1.60;;;14.60;77.00;;;;;;5061225;28;20120;-76
2022/04/20 06:00:15;;;;;;;4.05;1.40;;;14.60;77.00;;;;;;5050782;28;20047;-78
2022/04/20 06:02:42;;;;;;;4.10;1.55;;;14.50;76.90;;;;;;5049670;28;20112;-77
2022/04/20 06:05:08;;;;;;;3.83;1.60;;;14.60;77.00;;;;;;5048913;28;20037;-75
2022/04/20 06:07:34;;;;;;;3.60;1.70;;;14.50;76.90;;;;;;5050588;28;20039;-76
2022/04/20 06:09:59;;;;;;;3.80;1.63;;;14.60;77.00;;;;;;5049884;28;20029;-77
2022/04/20 06:12:25;;;;;;;4.63;1.85;;;14.60;76.90;;;;;;5049343;28;20083;-76
2022/04/20 06:14:50;;;;;;;2.50;1.38;;;14.50;76.80;;;;;;5062535;28;20621;-76
2022/04/20 06:17:16;;;;;;;3.33;1.60;;;14.50;76.70;;;;;;5070745;28;20024;-77
2022/04/20 06:19:41;;;;;;;5.45;2.00;;;14.60;76.80;;;;;;5069252;28;20119;-77
2022/04/20 06:22:07;;;;;;;3.50;1.45;;;14.60;76.70;;;;;;5071591;28;20088;-76
2022/04/20 06:24:32;;;;;;;3.88;1.63;;;14.60;76.70;;;;;;5088819;28;20031;-78
2022/04/20 06:26:58;;;;;;;3.63;1.58;;;14.60;76.70;;;;;;5065442;28;20396;-76
2022/04/20 06:29:24;;;;;;;3.45;1.60;;;14.70;76.70;;;;;;5064809;28;20132;-77
2022/04/20 06:31:51;;;;;;;3.65;1.50;;;14.70;76.70;;;;;;5059390;28;20037;-73
2022/04/20 06:34:17;;;;;;;4.18;1.55;;;14.70;76.60;;;;;;5066636;28;20048;-76
2022/04/20 06:36:42;;;;;;;7.78;1.83;;;14.70;76.40;;;;;;5068037;28;20530;-76
2022/04/20 06:39:08;;;;;;;11.00;2.28;;;14.70;76.40;;;;;;5067318;28;20056;-76
2022/04/20 06:41:33;;;;;;;11.43;2.03;;;14.70;76.00;;;;;;5068441;28;20392;-76
2022/04/20 06:43:59;;;;;;;9.35;2.00;;;14.70;75.80;;;;;;5067371;28;20392;-77
2022/04/20 06:46:24;;;;;;;11.85;2.42;;;14.80;75.70;;;;;;5068403;28;20062;-76
2022/04/20 06:48:50;;;;;;;9.27;2.00;;;14.80;75.70;;;;;;5067306;28;20040;-76
2022/04/20 06:51:15;;;;;;;9.23;1.90;;;14.80;75.60;;;;;;5065166;28;20029;-76
2022/04/20 06:59:09;;;;;;;7.78;1.90;;;14.90;75.50;;;;;;5088830;28;20093;-74
2022/04/20 07:01:35;;;;;;;8.55;1.85;;;14.90;75.50;;;;;;5086856;28;20024;-75
2022/04/20 07:04:00;;;;;;;6.93;1.85;;;14.90;75.40;;;;;;5086527;28;20346;-75
2022/04/20 07:06:27;;;;;;;8.65;1.98;;;14.90;75.30;;;;;;5086641;28;20028;-77
2022/04/20 07:08:53;;;;;;;6.32;1.88;;;15.00;75.40;;;;;;5088331;28;20024;-75
2022/04/20 07:11:18;;;;;;;8.50;1.88;;;15.00;75.40;;;;;;5087746;28;20402;-74
2022/04/20 07:13:46;;;;;;;8.20;2.00;;;15.00;75.30;;;;;;5087376;28;20032;-75
2022/04/20 07:16:11;;;;;;;4.40;1.70;;;15.00;75.30;;;;;;5086281;28;20107;-75
2022/04/20 07:18:37;;;;;;;6.10;1.80;;;15.00;75.30;;;;;;5072976;28;20123;-76
2022/04/20 07:21:03;;;;;;;9.57;2.15;;;15.00;75.20;;;;;;5066199;28;20020;-75
2022/04/20 07:23:29;;;;;;;7.78;1.80;;;15.10;75.10;;;;;;5067788;28;20048;-75
2022/04/20 07:25:54;;;;;;;4.88;1.90;;;15.10;75.10;;;;;;5065758;28;20086;-76
2022/04/20 07:28:20;;;;;;;5.35;1.90;;;15.20;75.00;;;;;;5067449;28;20023;-74
2022/04/20 07:30:45;;;;;;;7.38;1.70;;;15.20;74.90;;;;;;5065776;28;20392;-77
2022/04/20 07:33:14;;;;;;;8.05;2.10;;;15.20;74.70;;;;;;5066075;28;20020;-76
2022/04/20 07:35:40;;;;;;;8.15;2.05;;;15.20;74.60;;;;;;5066562;28;20368;-75
2022/04/20 07:38:05;;;;;;;5.30;1.90;;;15.20;74.60;;;;;;5065522;28;20036;-77
2022/04/20 07:40:31;;;;;;;4.15;1.73;;;15.30;74.60;;;;;;5065354;28;20071;-76
2022/04/20 07:42:57;;;;;;;5.57;1.90;;;15.30;74.50;;;;;;5049076;28;20383;-76
2022/04/20 07:45:25;;;;;;;5.75;2.00;;;15.30;74.50;;;;;;5060054;28;20483;-76
2022/04/20 07:47:52;;;;;;;6.07;1.80;;;15.30;74.40;;;;;;5065744;28;20432;-75
2022/04/20 07:50:18;;;;;;;4.45;2.20;;;15.30;74.30;;;;;;5067056;28;20033;-76
2022/04/20 07:52:49;;;;;;;4.63;1.88;;;15.30;74.20;;;;;;5065605;28;20032;-75
2022/04/20 07:55:23;;;;;;;5.17;1.70;;;15.40;74.30;;;;;;5066505;28;20410;-75
2022/04/20 07:57:50;;;;;;;4.50;1.75;;;15.40;74.20;;;;;;5067013;28;20028;-76
2022/04/20 08:00:17;;;;;;;6.10;1.65;;;15.30;74.10;;;;;;5065646;28;20098;-75
2022/04/20 08:02:43;;;;;;;3.65;1.67;;;15.30;74.30;;;;;;5067185;28;20569;-73
2022/04/20 08:05:10;;;;;;;4.38;1.80;;;15.30;74.40;;;;;;5066442;28;20033;-76
2022/04/20 08:07:35;;;;;;;4.60;1.90;;;15.30;74.50;;;;;;5066989;28;20510;-76
2022/04/20 08:10:06;;;;;;;4.85;2.10;;;15.30;74.60;;;;;;5065264;28;20033;-76
2022/04/20 08:12:39;;;;;;;4.63;1.90;;;15.30;74.60;;;;;;5065461;28;20025;-77
2022/04/20 08:15:06;;;;;;;3.58;1.88;;;15.30;74.70;;;;;;5065021;28;20086;-74
2022/04/20 08:17:32;;;;;;;5.05;1.88;;;15.40;74.70;;;;;;5064599;28;20040;-76
2022/04/20 08:19:58;;;;;;;4.72;2.22;;;15.30;74.70;;;;;;5066334;28;20033;-76
2022/04/20 08:22:24;;;;;;;3.85;2.20;;;15.40;74.70;;;;;;5066033;28;20021;-76
2022/04/20 08:24:50;;;;;;;4.20;2.00;;;15.40;74.60;;;;;;5065941;28;20396;-76
2022/04/20 08:27:16;;;;;;;5.55;1.98;;;15.40;74.60;;;;;;5065676;28;20085;-76
2022/04/20 08:29:42;;;;;;;5.55;2.20;;;15.40;74.50;;;;;;5066942;28;20135;-76
2022/04/20 08:32:09;;;;;;;6.28;2.20;;;15.40;74.50;;;;;;5066386;28;20551;-76
2022/04/20 08:34:34;;;;;;;5.05;2.30;;;15.50;74.50;;;;;;5064216;28;20029;-76
2022/04/20 08:37:00;;;;;;;4.43;2.00;;;15.50;74.50;;;;;;5084225;28;20507;-76
2022/04/20 08:39:25;;;;;;;7.18;2.42;;;15.50;74.40;;;;;;5086812;28;20020;-75
2022/04/20 08:41:51;;;;;;;5.00;2.08;;;15.50;74.40;;;;;;5085392;28;20390;-76
2022/04/20 08:44:27;;;;;;;4.60;2.30;;;15.50;74.30;;;;;;5085203;28;20016;-76
2022/04/20 08:46:55;;;;;;;7.13;2.30;;;15.50;74.30;;;;;;5079251;28;20111;-76
2022/04/20 08:49:21;;;;;;;5.32;2.20;;;15.50;74.30;;;;;;5066867;28;20052;-74
2022/04/20 08:54:34;;;;;;;5.60;2.30;;;15.60;74.30;;;;;;5067126;28;20048;-76
2022/04/20 08:57:15;;;;;;;5.38;2.10;;;15.60;74.30;;;;;;5065935;28;20032;-76
2022/04/20 08:59:43;;;;;;;5.72;2.47;;;15.50;74.20;;;;;;5066372;28;20021;-76
2022/04/20 09:02:11;;;;;;;3.58;2.08;;;15.50;74.30;;;;;;5083278;28;20046;-76
2022/04/20 09:04:36;;;;;;;4.32;2.22;;;15.60;74.20;;;;;;5085154;28;20027;-75
2022/04/20 09:07:03;;;;;;;4.53;2.00;;;15.60;74.20;;;;;;5077424;28;20504;-75
2022/04/20 09:09:30;;;;;;;5.30;2.35;;;15.60;74.20;;;;;;5066261;28;20048;-76
2022/04/20 09:11:59;;;;;;;4.35;2.20;;;15.60;74.10;;;;;;5065297;28;20024;-76
2022/04/20 09:14:28;;;;;;;4.00;2.00;;;15.70;74.10;;;;;;5064220;28;20039;-75
2022/04/20 09:16:56;;;;;;;5.97;2.40;;;15.70;74.10;;;;;;5048600;28;20452;-76
2022/04/20 09:19:26;;;;;;;3.90;2.10;;;15.70;74.00;;;;;;5062083;28;20029;-74
2022/04/20 09:21:53;;;;;;;5.55;2.35;;;15.70;74.00;;;;;;5053544;28;20495;-74
2022/04/20 09:24:19;;;;;;;4.63;2.33;;;15.70;73.90;;;;;;5050634;28;20014;-75
2022/04/20 09:26:51;;;;;;;4.35;2.53;;;15.70;73.90;;;;;;5070493;28;20035;-76
2022/04/20 09:29:16;;;;;;;6.18;2.65;;;15.80;73.90;;;;;;5086229;28;20024;-77
2022/04/20 09:31:43;;;;;;;5.28;2.47;;;15.80;73.80;;;;;;5064690;28;20545;-76
2022/04/20 09:34:11;;;;;;;3.85;2.30;;;15.80;73.70;;;;;;5080009;28;20410;-75
2022/04/20 09:36:48;;;;;;;5.43;2.47;;;15.80;73.70;;;;;;5085992;28;20483;-76
2022/04/20 09:39:14;;;;;;;5.43;2.20;;;15.80;73.70;;;;;;5084628;28;20063;-75
2022/04/20 09:41:58;;;;;;;6.40;2.60;;;15.90;73.70;;;;;;5086096;28;20021;-74
2022/04/20 09:44:24;;;;;;;4.32;2.30;;;15.80;73.60;;;;;;5084293;28;20510;-76
2022/04/20 09:49:37;;;;;;;5.00;2.60;;;15.90;73.50;;;;;;5076691;28;20043;-75
2022/04/20 09:52:12;;;;;;;5.18;2.40;;;15.90;73.40;;;;;;5064786;28;20028;-76
2022/04/20 09:54:38;;;;;;;3.92;2.00;;;15.90;73.20;;;;;;5044420;28;20036;-77
2022/04/20 09:57:12;;;;;;;3.72;2.10;;;16.00;73.10;;;;;;5044476;28;20033;-78
2022/04/20 09:59:58;;;;;;;4.18;2.42;;;16.00;73.00;;;;;;5045511;28;20096;-75
2022/04/20 10:02:25;;;;;;;4.25;2.28;;;16.00;72.90;;;;;;5046538;28;20500;-76
2022/04/20 10:04:51;;;;;;;3.83;2.10;;;16.00;72.90;;;;;;5063195;28;20029;-77
2022/04/20 10:07:17;;;;;;;5.35;2.50;;;16.10;72.90;;;;;;5076292;28;20034;-76
2022/04/20 10:09:43;;;;;;;3.78;2.15;;;16.10;72.90;;;;;;5085717;28;20115;-75
2022/04/20 10:12:17;;;;;;;4.28;2.15;;;16.00;72.90;;;;;;5065090;28;20472;-77
2022/04/20 10:17:34;;;;;;;4.03;2.13;;;16.10;73.00;;;;;;5065009;28;20093;-76
2022/04/20 10:20:02;;;;;;;4.22;2.20;;;16.10;73.00;;;;;;5065598;28;20029;-77
2022/04/20 10:22:30;;;;;;;3.83;2.03;;;16.10;73.00;;;;;;5061842;28;20016;-76
2022/04/20 10:24:56;;;;;;;3.75;2.03;;;16.10;73.00;;;;;;5077716;28;20086;-77
2022/04/20 10:27:47;;;;;;;3.85;2.08;;;16.00;73.00;;;;;;5086155;28;20479;-77
2022/04/20 10:30:24;;;;;;;4.95;2.10;;;16.00;73.20;;;;;;5068885;28;20090;-78
2022/04/20 10:33:07;;;;;;;4.35;1.92;;;16.00;73.30;;;;;;5049981;28;20037;-77
2022/04/20 10:36:13;;;;;;;3.70;2.10;;;16.00;73.50;;;;;;5049671;28;20087;-77
2022/04/20 10:38:39;;;;;;;4.43;2.10;;;16.00;73.50;;;;;;5064441;28;20043;-75
2022/04/20 10:41:12;;;;;;;5.30;2.58;;;16.00;73.50;;;;;;5074995;28;20021;-75
2022/04/20 10:43:41;;;;;;;3.97;2.13;;;15.90;73.50;;;;;;5070034;28;20129;-75
2022/04/20 10:46:07;;;;;;;3.78;2.10;;;16.00;73.60;;;;;;5063984;28;20115;-76
2022/04/20 10:48:58;;;;;;;4.38;2.30;;;15.90;73.50;;;;;;5070738;28;20016;-76
2022/04/20 10:51:30;;;;;;;3.17;2.00;;;15.90;73.50;;;;;;5087293;28;20479;-76
2022/04/20 10:54:15;;;;;;;;;;;15.90;73.50;;;;;;5088915;28;20039;-75
2022/04/20 10:56:59;;;;;;;4.20;2.25;;;15.90;74.10;;;;;;5088754;28;19912;-76
2022/04/20 10:59:24;;;;;;;3.67;2.00;;;15.90;73.60;;;;;;5087951;28;20032;-76
2022/04/20 11:01:59;;;;;;;4.15;2.08;;;15.90;73.70;;;;;;5075950;28;20031;-77
2022/04/20 11:04:50;;;;;;;3.88;2.15;;;15.90;73.60;;;;;;5066464;28;20028;-76
2022/04/20 11:07:32;;;;;;;3.25;1.90;;;16.00;73.70;;;;;;5068084;28;20074;-77
2022/04/20 11:10:00;;;;;;;3.42;1.92;;;16.00;73.70;;;;;;5066870;28;20085;-76
2022/04/20 11:18:38;;;;;;;4.18;2.13;;;15.90;73.70;;;;;;5067944;28;20104;-76
2022/04/20 11:21:04;;;;;;;5.30;2.00;;;15.90;74.20;;;;;;5068020;28;20028;-75
2022/04/20 11:23:55;;;;;;;3.22;1.88;;;16.00;73.80;;;;;;5067689;28;20020;-77
2022/04/20 11:26:27;;;;;;;3.38;1.95;;;15.90;73.70;;;;;;5079351;28;20029;-76
2022/04/20 11:29:10;;;;;;;4.47;2.17;;;16.00;73.80;;;;;;5066706;28;20091;-75
2022/04/20 11:31:42;;;;;;;3.88;2.17;;;16.00;73.70;;;;;;5067535;28;20081;-76
2022/04/20 11:34:08;;;;;;;;;;;15.90;73.70;;;;;;5087194;28;20031;-75
2022/04/20 11:36:37;;;;;;;3.80;1.90;;;15.90;73.70;;;;;;5088014;28;20291;-76
2022/04/20 11:39:02;;;;;;;3.22;1.83;;;15.90;73.70;;;;;;5088195;28;20024;-77
2022/04/20 11:41:28;;;;;;;3.83;1.92;;;16.00;73.80;;;;;;5087496;28;20075;-77
2022/04/20 11:43:54;;;;;;;3.25;1.90;;;15.90;73.70;;;;;;5084620;28;20066;-76
2022/04/20 11:46:20;;;;;;;3.08;1.90;;;15.90;73.70;;;;;;5067630;28;20037;-75
2022/04/20 11:48:50;;;;;;;4.47;2.00;;;15.90;73.70;;;;;;5067307;28;20050;-76
2022/04/20 11:51:21;;;;;;;3.45;1.85;;;15.90;73.70;;;;;;5066147;28;20635;-77
2022/04/20 11:53:47;;;;;;;3.33;2.00;;;15.90;73.70;;;;;;5066019;28;20028;-77
2022/04/20 11:56:13;;;;;;;3.67;1.92;;;15.90;73.80;;;;;;5067579;28;20037;-77
2022/04/20 11:58:38;;;;;;;4.38;2.10;;;16.00;73.90;;;;;;5062878;28;20020;-77
2022/04/20 12:01:06;;;;;;;3.72;1.90;;;15.90;73.90;;;;;;5053414;28;20166;-74
2022/04/20 12:03:32;;;;;;;3.72;2.00;;;15.90;73.90;;;;;;5065649;28;20024;-76
2022/04/20 12:06:06;;;;;;;2.80;1.77;;;15.90;73.90;;;;;;5079721;28;20026;-77
2022/04/20 12:08:33;;;;;;;3.38;2.00;;;15.90;73.90;;;;;;5087382;28;20051;-76
2022/04/20 12:11:10;;;;;;;3.42;1.75;;;15.80;73.90;;;;;;5070315;28;20021;-77
2022/04/20 12:13:36;;;;;;;2.95;1.80;;;15.90;73.90;;;;;;5065485;28;20024;-77
2022/04/20 12:16:10;;;;;;;3.28;2.10;;;15.90;74.10;;;;;;5064180;28;20042;-76
2022/04/20 12:18:41;;;;;;;3.33;1.85;;;15.90;74.00;;;;;;5067677;28;20486;-75
2022/04/20 12:21:42;;;;;;;2.83;1.70;;;16.00;74.00;;;;;;5061878;28;20119;-75
2022/04/20 12:24:10;;;;;;;3.45;1.80;;;15.90;73.90;;;;;;5046313;28;20060;-77
2022/04/20 12:26:41;;;;;;;2.70;1.60;;;15.90;73.70;;;;;;5059638;28;20036;-77
2022/04/20 12:29:06;;;;;;;2.78;1.80;;;15.90;73.70;;;;;;5065854;28;20024;-76
2022/04/20 12:31:33;;;;;;;3.58;1.80;;;16.00;73.70;;;;;;5065518;28;20032;-76
2022/04/20 12:34:08;;;;;;;3.42;1.85;;;16.00;73.60;;;;;;5062109;28;20039;-77
2022/04/20 12:36:49;;;;;;;3.05;1.70;;;16.00;73.60;;;;;;5061166;28;20032;-76
2022/04/20 12:39:35;;;;;;;3.25;1.95;;;16.00;73.60;;;;;;5061142;28;20079;-77
2022/04/20 12:42:08;;;;;;;3.90;1.95;;;16.00;73.60;;;;;;5061724;28;20044;-76
2022/04/20 12:44:46;;;;;;;4.68;1.90;;;16.00;73.60;;;;;;5061007;28;20027;-75
2022/04/20 12:47:12;;;;;;;3.15;1.77;;;16.00;73.60;;;;;;5060685;28;20020;-76
2022/04/20 12:49:38;;;;;;;3.22;1.92;;;16.00;73.60;;;;;;5064828;28;20043;-77
2022/04/20 12:52:17;;;;;;;3.60;1.90;;;16.00;73.70;;;;;;5065270;28;20566;-76
2022/04/20 12:54:55;;;;;;;2.42;1.58;;;16.00;73.70;;;;;;5059848;28;20133;-77
2022/04/20 13:03:07;;;;;;;3.30;1.83;;;15.90;74.00;;;;;;5065924;28;20055;-77
2022/04/20 13:05:35;;;;;;;3.65;1.77;;;15.80;74.20;;;;;;5064349;28;20123;-76
2022/04/20 13:08:02;;;;;;;3.40;1.92;;;15.80;74.40;;;;;;5066299;28;20055;-76
2022/04/20 13:10:34;;;;;;;4.22;2.15;;;15.70;74.40;;;;;;5080599;28;20035;-76
2022/04/20 13:13:00;;;;;;;4.10;2.00;;;15.70;74.60;;;;;;5067729;28;20020;-76
2022/04/20 13:15:28;;;;;;;2.75;1.60;;;15.70;74.70;;;;;;5066991;28;20039;-76
2022/04/20 13:17:54;;;;;;;3.72;1.88;;;15.70;74.80;;;;;;5066710;28;20025;-76
2022/04/20 13:20:21;;;;;;;3.83;1.80;;;15.70;74.80;;;;;;5079088;28;20032;-76
2022/04/20 13:22:47;;;;;;;4.00;2.03;;;15.70;74.90;;;;;;5054679;28;20026;-77
2022/04/20 13:27:56;;;;;;;3.00;1.70;;;15.60;74.90;;;;;;5055265;28;20035;-77
2022/04/20 13:30:27;;;;;;;3.30;1.80;;;15.60;74.90;;;;;;5057641;28;20041;-75